Ana Sayfa
METAR-TAF:

METAR-TAF

Havaalanları :

Edremit, Türkiye

Balıkesir Koca Seyit Havalimanı

Enlem: 39-33-16N, Boylam: 27-00-49E, yükseklik: 15 m

Güncel hava durumu gözlemi

Rapor saat 13:50 UTC de 54 dakika önce yapıldı.
Rüzgar doğu/kuzeydoğudan 19 kt
Sıcaklık 11°C
Nem 76%
Basınç 1012 hPa
Görüş mesafesi 10 km veya daha fazla
3000 ft yükseklikte parçalı bulutlu
10000 ft yükseklikte parçalı bulutlu

METAR: LTFD 231350Z 07019KT 9999 SCT030 SCT100 11/07 Q1012

Saat: 17:44 (14:44 UTC)

Tahmin

Rapor saat 13:40 UTC de 1 saat ve 4 dakika önce yapıldı.
Ayın 23'si saat 15 UTC'den ayın 23'si saat 24 UTC'ye kadar geçerli Tahmin
Rüzgar doğu/kuzeydoğudan 15 kt
Görüş mesafesi 10 km veya daha fazla
3000 ft yükseklikte parçalı bulutlu
10000 ft yükseklikte parçalı çok bulutlu

TAF: LTFD 231340Z 2315/2324 07015KT 9999 SCT030 BKN100

4.000'den fazla havaalanı için hava durumu gözlemleri ve tahminleri (METAR ve TAF raporları).

Kullanılabilir istasyonlar harita üzerinde sarı ve kırmızı noktalarla gösterilir.

İstasyonun adını görmek için fareyi noktanın üzerinde gezdirin.

Sonrasında hava gözlem ve tahminlerini görmek için tıklayın.

Haritayı değiştirmek için: yaklaştırmak için siyah artı işaretli yeşil düğmeye ve uzaklaştırmak için de eksi işaretli düğmeye hızla tıklayın; bitişik haritalar için yeşil okları kullanın.


METAR-TAF: